Time;durP1;ratioP1;P1;durP2;ratioP2;P2;SDS_P1;SDS_P2;PMS_P1;PMS_P2;Temp;Humidity;BMP_temperature;BMP_pressure;BME280_temperature;BME280_humidity;BME280_pressure;Samples;Min_cycle;Max_cycle;Signal;HPM_P1;HPM_P2
2021/12/04 00:02:08;;;;;;;;;;;;;;;-1.49;100.00;98214.95;1567120;89;21552;-70
2021/12/04 00:04:41;;;;;;;14.07;8.90;;;;;;;-1.51;100.00;98211.57;1566681;89;20184;-69
2021/12/04 00:07:08;;;;;;;13.88;10.10;;;;;;;-1.54;100.00;98220.60;1582637;89;22022;-69
2021/12/04 00:09:36;;;;;;;13.98;9.33;;;;;;;-1.54;100.00;98215.48;1571663;89;21100;-69
2021/12/04 00:12:06;;;;;;;11.60;8.75;;;;;;;-1.53;100.00;98204.39;1567351;88;21699;-69
2021/12/04 00:14:36;;;;;;;12.35;8.30;;;;;;;-1.53;100.00;98201.83;1566031;89;21117;-69
2021/12/04 00:17:05;;;;;;;14.05;9.43;;;;;;;-1.56;100.00;98207.02;1567565;89;21094;-70
2021/12/04 00:19:32;;;;;;;13.08;8.90;;;;;;;-1.54;100.00;98207.39;1566248;89;21119;-69
2021/12/04 00:22:00;;;;;;;11.88;9.05;;;;;;;-1.53;100.00;98209.51;1567517;89;21078;-69
2021/12/04 00:24:27;;;;;;;13.98;8.98;;;;;;;-1.51;100.00;98207.73;1579873;89;21105;-69
2021/12/04 00:26:55;;;;;;;12.47;9.18;;;;;;;-1.49;100.00;98205.98;1565798;89;22554;-69
2021/12/04 00:29:23;;;;;;;13.40;8.83;;;;;;;-1.48;100.00;98192.33;1567516;89;21291;-69
2021/12/04 00:31:55;;;;;;;13.62;8.68;;;;;;;-1.45;100.00;98202.50;1566581;89;21091;-69
2021/12/04 00:34:22;;;;;;;13.43;8.90;;;;;;;-1.45;100.00;98189.70;1566353;89;21083;-69
2021/12/04 00:50:18;;;;;;;12.95;8.35;;;;;;;-1.42;100.00;98180.66;1617773;87;21204;-69
2021/12/04 00:52:45;;;;;;;11.97;9.18;;;;;;;-1.42;100.00;98183.22;1616775;86;21099;-69
2021/12/04 00:55:12;;;;;;;11.07;8.27;;;;;;;-1.42;100.00;98171.70;1617368;87;21168;-69
2021/12/04 00:57:39;;;;;;;14.83;9.13;;;;;;;-1.44;100.00;98177.29;1617434;87;21312;-69
2021/12/04 01:00:08;;;;;;;13.43;8.20;;;;;;;-1.44;100.00;98174.73;1616947;87;21690;-70
2021/12/04 01:02:35;;;;;;;14.85;8.60;;;;;;;-1.43;100.00;98173.84;1617682;87;20989;-69
2021/12/04 01:05:02;;;;;;;11.55;8.43;;;;;;;-1.44;100.00;98168.33;1616978;87;21186;-69
2021/12/04 01:07:28;;;;;;;12.65;8.73;;;;;;;-1.45;100.00;98157.70;1617932;86;21641;-70
2021/12/04 01:09:55;;;;;;;11.20;8.35;;;;;;;-1.45;100.00;98155.14;1618358;87;21116;-69
2021/12/04 01:12:22;;;;;;;13.67;9.23;;;;;;;-1.45;100.00;98153.86;1617551;87;20982;-69
2021/12/04 01:14:49;;;;;;;12.80;8.58;;;;;;;-1.44;100.00;98158.09;1631161;86;21056;-69
2021/12/04 01:17:15;;;;;;;11.53;8.93;;;;;;;-1.44;100.00;98150.41;1632162;86;21121;-69
2021/12/04 01:19:42;;;;;;;13.28;8.98;;;;;;;-1.46;100.00;98148.31;1617585;87;21259;-69
2021/12/04 01:22:09;;;;;;;12.58;8.25;;;;;;;-1.47;100.00;98153.05;1618017;87;21231;-69
2021/12/04 01:24:36;;;;;;;11.93;9.05;;;;;;;-1.46;100.00;98147.03;1616344;87;21039;-69
2021/12/04 01:27:03;;;;;;;11.13;8.77;;;;;;;-1.53;100.00;98132.72;1617618;87;21113;-71
2021/12/04 01:29:30;;;;;;;13.00;9.03;;;;;;;-1.45;100.00;98143.62;1617575;85;21543;-72
2021/12/04 01:31:56;;;;;;;12.58;8.85;;;;;;;-1.48;100.00;98137.30;1617968;87;20969;-72
2021/12/04 01:34:23;;;;;;;11.30;8.40;;;;;;;-1.49;100.00;98124.07;1618169;87;22094;-72
2021/12/04 01:36:50;;;;;;;12.87;9.13;;;;;;;-1.47;100.00;98127.44;1618409;87;20997;-71
2021/12/04 01:39:16;;;;;;;11.73;8.00;;;;;;;-1.48;100.00;98116.38;1599736;87;21063;-72
2021/12/04 01:41:43;;;;;;;12.65;9.73;;;;;;;-1.45;100.00;98128.26;1593113;88;20955;-72
2021/12/04 01:44:10;;;;;;;11.80;9.03;;;;;;;-1.47;100.00;98121.05;1593476;88;21002;-72
2021/12/04 01:46:37;;;;;;;20.32;10.60;;;;;;;-1.48;100.00;98125.77;1592730;87;21915;-72
2021/12/04 01:49:03;;;;;;;13.98;9.78;;;;;;;-1.51;100.00;98118.14;1600552;86;21021;-70
2021/12/04 01:53:16;;;;;;;11.80;9.63;;;;;;;-1.46;100.00;98113.75;1853074;75;22603;-69
2021/12/04 01:55:43;;;;;;;12.50;9.40;;;;;;;-1.51;100.00;98114.30;1818924;77;20992;-69
2021/12/04 01:58:11;;;;;;;12.98;9.58;;;;;;;-1.51;100.00;98110.46;1817169;77;21460;-70
2021/12/04 02:00:41;;;;;;;12.15;9.55;;;;;;;-1.52;100.00;98108.80;1818547;78;21003;-70
2021/12/04 02:03:08;;;;;;;12.90;9.40;;;;;;;-1.52;100.00;98108.80;1816383;78;21003;-70
2021/12/04 02:05:40;;;;;;;12.43;9.35;;;;;;;-1.52;100.00;98111.35;1817535;78;21261;-70
2021/12/04 02:08:09;;;;;;;12.18;9.45;;;;;;;-1.53;100.00;98102.00;1820619;77;20938;-70
2021/12/04 02:10:36;;;;;;;14.03;9.15;;;;;;;-1.48;100.00;98095.05;1816641;78;21065;-70
2021/12/04 02:13:04;;;;;;;17.05;9.28;;;;;;;-1.47;100.00;98091.61;1814234;77;21004;-71
2021/12/04 02:15:31;;;;;;;11.63;9.38;;;;;;;-1.47;100.00;98095.00;1815515;78;21503;-70
2021/12/04 02:17:58;;;;;;;13.80;9.95;;;;;;;-1.45;100.00;98086.85;1819157;77;27132;-70
2021/12/04 02:20:28;;;;;;;17.27;9.53;;;;;;;-1.45;100.00;98088.13;1819341;77;20954;-70
2021/12/04 02:22:56;;;;;;;16.70;10.08;;;;;;;-1.42;100.00;98087.22;1818511;78;20914;-71
2021/12/04 02:25:24;;;;;;;13.68;8.98;;;;;;;-1.41;100.00;98083.77;1815120;77;21043;-70
2021/12/04 02:27:51;;;;;;;11.88;9.78;;;;;;;-1.39;100.00;98090.98;1816348;77;20984;-71
2021/12/04 02:30:21;;;;;;;;;;;;;;;-1.37;100.00;98087.95;1818258;77;21020;-70
2021/12/04 02:32:49;;;;;;;16.65;9.93;;;;;;;-1.35;100.00;98090.00;1818878;77;20170;-71
2021/12/04 02:35:18;;;;;;;13.78;10.23;;;;;;;-1.35;100.00;98081.88;1818348;77;22089;-71
2021/12/04 02:37:45;;;;;;;14.45;10.15;;;;;;;-1.35;100.00;98081.05;1818476;77;21034;-71
2021/12/04 02:40:17;;;;;;;14.80;10.10;;;;;;;-1.33;100.00;98084.41;1796005;77;20989;-71
2021/12/04 02:42:44;;;;;;;12.70;9.80;;;;;;;-1.35;100.00;98073.36;1811559;77;20968;-71
2021/12/04 02:45:12;;;;;;;12.65;9.58;;;;;;;-1.35;100.00;98069.52;1815958;77;21055;-71
2021/12/04 02:47:40;;;;;;;;;;;;;;;-1.35;100.00;98070.80;1823560;77;21237;-71
2021/12/04 02:50:10;;;;;;;14.93;10.18;;;;;;;-1.34;100.00;98071.22;1810712;77;20078;-70
2021/12/04 02:52:38;;;;;;;12.58;9.33;;;;;;;-1.33;100.00;98063.09;1819486;77;21506;-71
2021/12/04 02:55:06;;;;;;;14.58;9.53;;;;;;;-1.33;100.00;98058.81;1818434;78;21019;-71
2021/12/04 02:57:36;;;;;;;11.93;8.55;;;;;;;-1.33;100.00;98054.97;1813746;78;20941;-71
2021/12/04 03:00:01;;;;;;;10.93;8.85;;;;;;;-1.33;100.00;98047.28;1820591;78;21316;-71
2021/12/04 03:02:28;;;;;;;13.38;10.53;;;;;;;-1.32;100.00;98050.23;1815001;78;20959;-71
2021/12/04 03:04:58;;;;;;;10.93;8.73;;;;;;;-1.35;100.00;98043.47;1813014;78;20989;-71
2021/12/04 03:07:26;;;;;;;14.95;8.70;;;;;;;-1.35;100.00;98038.80;1816609;77;20938;-71
2021/12/04 03:09:54;;;;;;;14.53;10.05;;;;;;;-1.37;100.00;98037.58;1792346;78;20924;-71
2021/12/04 03:12:25;;;;;;;14.85;10.03;;;;;;;-1.36;100.00;98038.41;1816261;78;21843;-71
2021/12/04 03:14:53;;;;;;;13.08;9.30;;;;;;;-1.36;100.00;98038.41;1784679;78;20944;-71
2021/12/04 03:17:21;;;;;;;13.40;9.90;;;;;;;-1.37;100.00;98037.58;1817819;77;21081;-71
2021/12/04 03:19:52;;;;;;;11.25;9.78;;;;;;;-1.36;100.00;98035.84;1790947;78;20966;-71
2021/12/04 03:22:19;;;;;;;12.63;10.00;;;;;;;-1.34;100.00;98031.54;1813828;77;20940;-71
2021/12/04 03:24:46;;;;;;;12.30;9.80;;;;;;;-1.34;100.00;98034.09;1815208;78;21069;-71
2021/12/04 03:27:16;;;;;;;13.13;10.80;;;;;;;-1.32;100.00;98028.92;1814129;77;21455;-71
2021/12/04 03:29:48;;;;;;;12.70;9.68;;;;;;;-1.34;100.00;98032.81;1819611;77;20988;-71
2021/12/04 03:42:53;;;;;;;15.65;8.98;;;;;;;-1.33;100.00;98022.96;1818628;77;21150;-70
2021/12/04 03:45:20;;;;;;;13.62;9.33;;;;;;;-1.33;100.00;98024.69;1819317;78;20966;-71
2021/12/04 03:47:49;;;;;;;15.00;9.93;;;;;;;-1.33;100.00;98020.85;1817966;77;21569;-70
2021/12/04 03:50:16;;;;;;;12.50;9.08;;;;;;;-1.33;100.00;98020.85;1816926;78;21295;-71
2021/12/04 03:52:43;;;;;;;15.48;9.13;;;;;;;-1.33;100.00;98020.41;1819455;77;20940;-70
2021/12/04 03:55:11;;;;;;;12.13;9.03;;;;;;;-1.31;100.00;98022.94;1822653;77;21046;-71
2021/12/04 03:57:44;;;;;;;12.63;8.85;;;;;;;-1.31;100.00;98025.05;1820523;77;21089;-70
2021/12/04 04:00:08;;;;;;;12.10;8.98;;;;;;;-1.32;100.00;98024.63;1814012;77;20993;-71
2021/12/04 04:02:35;;;;;;;12.00;9.35;;;;;;;-1.33;100.00;98018.29;1811978;77;21046;-71
2021/12/04 04:05:01;;;;;;;11.90;9.23;;;;;;;-1.35;100.00;98012.75;1814080;77;20983;-71
2021/12/04 04:07:28;;;;;;;10.82;8.75;;;;;;;-1.37;100.00;98013.25;1817925;77;20879;-70
2021/12/04 04:09:55;;;;;;;11.48;8.78;;;;;;;-1.35;100.00;98017.03;1814792;77;21578;-70
2021/12/04 04:12:21;;;;;;;13.93;9.28;;;;;;;-1.34;100.00;98016.17;1815313;78;20927;-71
2021/12/04 04:14:48;;;;;;;12.28;8.60;;;;;;;-1.32;100.00;98013.55;1810147;77;22012;-70
2021/12/04 04:17:15;;;;;;;10.45;8.38;;;;;;;-1.31;100.00;98014.81;1821235;77;21014;-71
2021/12/04 04:19:42;;;;;;;10.45;8.28;;;;;;;-1.30;100.00;98011.80;1772013;78;21032;-71
2021/12/04 04:22:08;;;;;;;10.93;8.67;;;;;;;-1.29;100.00;98016.86;1820519;77;20986;-71
2021/12/04 04:24:35;;;;;;;12.15;8.98;;;;;;;-1.29;100.00;98016.86;1814499;77;20983;-71
2021/12/04 04:27:02;;;;;;;10.93;7.87;;;;;;;-1.28;100.00;98001.09;1814354;77;21328;-72
2021/12/04 04:29:28;;;;;;;12.97;8.83;;;;;;;-1.28;100.00;98012.61;1818670;77;21016;-71
2021/12/04 04:31:55;;;;;;;11.08;7.80;;;;;;;-1.28;100.00;97999.36;1816450;77;21082;-71
2021/12/04 04:34:30;;;;;;;10.93;8.13;;;;;;;-1.29;100.00;97995.10;1819431;78;21016;-71
2021/12/04 04:37:25;;;;;;;12.10;8.33;;;;;;;-1.30;100.00;97993.43;1809780;78;21550;-71
2021/12/04 04:40:08;;;;;;;13.65;8.45;;;;;;;-1.32;100.00;97990.06;1792044;78;21255;-71
2021/12/04 04:58:53;;;;;;;14.80;9.18;;;;;;;-1.53;100.00;97991.49;1795368;79;21058;-71
2021/12/04 05:13:05;;;;;;;13.50;9.63;;;;;;;-1.43;100.00;97989.52;1855993;76;24317;-70
2021/12/04 05:16:13;;;;;;;16.02;10.72;;;;;;;-1.47;100.00;97982.81;1813967;77;20980;-71
2021/12/04 05:18:18;;;;;;;13.00;9.58;;;;;;;-1.45;100.00;97993.86;1807596;77;21594;-69
2021/12/04 05:20:39;;;;;;;13.43;8.70;;;;;;;-1.45;100.00;97995.14;1820991;77;21500;-70
2021/12/04 05:23:10;;;;;;;12.35;9.33;;;;;;;-1.45;100.00;97985.73;1813915;77;21118;-69
2021/12/04 05:25:37;;;;;;;14.47;9.45;;;;;;;-1.44;100.00;97990.41;1822857;77;20945;-69
2021/12/04 05:28:05;;;;;;;13.28;9.50;;;;;;;-1.43;100.00;97988.23;1818280;77;20924;-70
2021/12/04 05:30:32;;;;;;;11.93;9.73;;;;;;;-1.45;100.00;97992.58;1824404;77;21539;-69
2021/12/04 05:33:00;;;;;;;15.40;8.33;;;;;;;-1.44;100.00;97985.28;1821941;77;20985;-69
2021/12/04 05:35:27;;;;;;;17.27;8.85;;;;;;;-1.43;100.00;97990.80;1819615;77;20985;-69
2021/12/04 05:37:54;;;;;;;15.45;10.15;;;;;;;-1.41;100.00;97994.16;1821820;77;21512;-70
2021/12/04 05:40:21;;;;;;;12.73;9.40;;;;;;;-1.40;100.00;97985.59;1823703;77;20937;-70
2021/12/04 05:42:48;;;;;;;12.03;8.50;;;;;;;-1.38;100.00;97988.51;1819818;78;21187;-69
2021/12/04 05:45:21;;;;;;;10.77;8.20;;;;;;;-1.36;100.00;97982.08;1824558;77;21023;-70
2021/12/04 05:48:07;;;;;;;12.95;8.33;;;;;;;-1.35;100.00;97987.14;1822975;77;21034;-70
2021/12/04 05:53:29;;;;;;;11.00;8.40;;;;;;;-1.34;100.00;97991.85;1824016;77;20980;-70
2021/12/04 05:55:55;;;;;;;11.78;7.95;;;;;;;-1.33;100.00;97987.12;1817071;77;21093;-71
2021/12/04 05:58:29;;;;;;;11.75;9.20;;;;;;;-1.31;100.00;97981.97;1818218;77;21217;-71
2021/12/04 06:00:59;;;;;;;11.68;8.48;;;;;;;-1.30;100.00;97983.19;1814437;77;20994;-71
2021/12/04 06:03:27;;;;;;;10.38;8.03;;;;;;;-1.28;100.00;97981.88;1819988;77;21015;-71
2021/12/04 06:05:54;;;;;;;11.95;8.68;;;;;;;-1.26;100.00;97986.08;1822564;77;21005;-71
2021/12/04 06:08:21;;;;;;;11.93;8.10;;;;;;;-1.25;100.00;97992.88;1817514;77;21530;-71
2021/12/04 06:10:49;;;;;;;10.58;9.30;;;;;;;-1.22;100.00;97995.34;1819691;77;21082;-71
2021/12/04 06:13:17;;;;;;;11.93;8.78;;;;;;;-1.20;100.00;97988.47;1820370;77;21081;-71
2021/12/04 06:15:44;;;;;;;11.85;8.65;;;;;;;-1.20;100.00;97988.47;1794538;77;21016;-71
2021/12/04 06:18:13;;;;;;;9.20;8.15;;;;;;;-1.22;100.00;97994.06;1824872;77;20999;-72
2021/12/04 06:23:25;;;;;;;11.35;9.28;;;;;;;-1.24;100.00;97991.98;1820678;78;22347;-71
2021/12/04 06:25:52;;;;;;;12.25;8.73;;;;;;;-1.22;100.00;97987.66;1822541;77;21011;-71
2021/12/04 06:28:18;;;;;;;10.10;8.57;;;;;;;-1.21;100.00;97987.22;1819770;77;21079;-71
2021/12/04 06:30:46;;;;;;;11.97;9.60;;;;;;;-1.20;100.00;97988.47;1820516;77;21222;-71
2021/12/04 06:33:19;;;;;;;11.57;9.20;;;;;;;-1.20;100.00;97988.47;1820240;77;21113;-71
2021/12/04 06:35:43;;;;;;;10.23;8.70;;;;;;;-1.22;100.00;97992.78;1819642;77;22244;-71
2021/12/04 06:38:14;;;;;;;10.32;8.73;;;;;;;-1.21;100.00;97991.89;1794450;78;20994;-71
2021/12/04 06:40:40;;;;;;;10.18;8.28;;;;;;;-1.19;100.00;97993.98;1820999;77;21535;-71
2021/12/04 06:43:08;;;;;;;10.63;8.83;;;;;;;-1.17;100.00;97989.66;1815676;77;21567;-71
2021/12/04 06:45:37;;;;;;;;;;;;;;;-1.18;100.00;97994.36;1825832;77;21071;-71
2021/12/04 06:48:09;;;;;;;12.95;9.20;;;;;;;-1.19;100.00;97995.26;1824780;77;20327;-71
2021/12/04 06:53:09;;;;;;;;;;;;;;;-1.16;100.00;97993.89;1825881;77;20995;-71
2021/12/04 06:55:37;;;;;;;13.05;10.45;;;;;;;-1.15;100.00;98001.12;1823135;77;20161;-71
2021/12/04 06:57:58;;;;;;;11.93;9.13;;;;;;;-1.13;100.00;98015.58;1823468;77;21084;-71
2021/12/04 07:00:26;;;;;;;13.08;9.68;;;;;;;-1.10;100.00;98007.41;1824426;77;20987;-71
2021/12/04 07:02:53;;;;;;;12.40;9.55;;;;;;;-1.07;100.00;98008.61;1821919;77;24777;-71
2021/12/04 07:05:21;;;;;;;12.47;9.73;;;;;;;-1.01;100.00;98009.71;1822372;77;20983;-71
2021/12/04 07:07:47;;;;;;;13.00;9.03;;;;;;;-0.99;100.00;98009.23;1821105;77;22613;-71
2021/12/04 07:10:14;;;;;;;9.77;8.50;;;;;;;-0.99;100.00;98007.50;1824691;78;21031;-71
2021/12/04 07:12:41;;;;;;;10.28;8.75;;;;;;;-0.96;100.00;98012.54;1827173;77;21087;-72
2021/12/04 07:15:10;;;;;;;10.70;8.45;;;;;;;-0.93;100.00;98006.49;1827357;77;21019;-71
2021/12/04 07:17:37;;;;;;;11.65;9.00;;;;;;;-0.90;100.00;98011.53;1829586;77;20973;-72
2021/12/04 07:20:08;;;;;;;12.78;9.70;;;;;;;-0.88;100.00;98014.89;1828148;77;21043;-71
2021/12/04 07:22:35;;;;;;;14.33;9.43;;;;;;;-0.83;100.00;98011.77;1827917;77;21046;-71
2021/12/04 07:25:05;;;;;;;13.90;8.90;;;;;;;-0.81;100.00;98015.12;1820737;76;21732;-71
2021/12/04 07:27:32;;;;;;;14.07;10.40;;;;;;;-0.79;100.00;98013.34;1823713;77;20952;-70
2021/12/04 07:30:00;;;;;;;10.58;8.70;;;;;;;-0.76;100.00;98022.22;1820698;77;21027;-71
2021/12/04 07:32:27;;;;;;;11.57;9.55;;;;;;;-0.71;100.00;98025.94;1826436;77;21546;-71
2021/12/04 07:34:54;;;;;;;11.90;9.50;;;;;;;-0.66;100.00;98029.66;1825237;77;21015;-71
2021/12/04 07:37:22;;;;;;;13.05;10.15;;;;;;;-0.64;100.00;98024.03;1825627;77;20999;-71
2021/12/04 07:39:49;;;;;;;12.25;9.80;;;;;;;-0.56;100.00;98023.36;1827059;77;21594;-71
2021/12/04 07:42:16;;;;;;;10.65;8.78;;;;;;;-0.53;100.00;98018.17;1825908;77;20984;-71
2021/12/04 07:44:42;;;;;;;12.25;8.33;;;;;;;-0.51;100.00;98019.78;1806229;78;20949;-72
2021/12/04 07:47:09;;;;;;;10.58;9.48;;;;;;;-0.46;100.00;98021.77;1821260;77;21053;-71
2021/12/04 07:49:39;;;;;;;10.58;8.95;;;;;;;-0.39;100.00;98018.59;1829265;77;20976;-71
2021/12/04 07:52:09;;;;;;;10.48;8.83;;;;;;;-0.36;100.00;98010.80;1826032;77;20948;-71
2021/12/04 07:54:36;;;;;;;9.00;8.10;;;;;;;-0.32;100.00;98008.53;1826840;77;20992;-71
2021/12/04 07:57:04;;;;;;;9.90;8.15;;;;;;;-0.28;100.00;98011.41;1829588;77;21046;-71
2021/12/04 07:59:30;;;;;;;;;;;;;;;-0.23;100.00;98008.23;1829063;77;21129;-72
2021/12/04 08:01:58;;;;;;;11.78;8.98;;;;;;;-0.17;100.00;98016.63;1821006;77;20109;-71
2021/12/04 08:04:25;;;;;;;13.28;9.75;;;;;;;-0.12;100.00;98016.05;1826004;77;20944;-71
2021/12/04 08:06:53;;;;;;;13.05;9.53;;;;;;;-0.10;100.00;98019.41;1824482;78;20964;-71
2021/12/04 08:09:21;;;;;;;12.73;10.65;;;;;;;-0.05;100.00;98020.11;1824932;77;20980;-72
2021/12/04 08:11:50;;;;;;;17.50;10.60;;;;;;;-0.01;100.00;98024.25;1800243;77;21743;-71
2021/12/04 08:14:17;;;;;;;14.93;10.25;;;;;;;0.03;100.00;98032.26;1824598;77;21023;-71
2021/12/04 08:16:46;;;;;;;14.87;9.73;;;;;;;0.12;100.00;98035.80;1825373;77;21514;-72
2021/12/04 08:19:14;;;;;;;13.22;10.20;;;;;;;0.15;100.00;98031.85;1821544;77;21500;-72
2021/12/04 08:21:40;;;;;;;14.65;10.20;;;;;;;0.19;100.00;98037.27;1793901;78;21002;-71
2021/12/04 08:24:07;;;;;;;13.93;10.58;;;;;;;0.24;100.00;98035.02;1822161;77;21212;-71
2021/12/04 08:26:38;;;;;;;14.83;11.60;;;;;;;0.34;100.00;98037.69;1814911;77;21006;-71
2021/12/04 08:29:06;;;;;;;18.32;13.60;;;;;;;0.44;100.00;98033.90;1826109;77;21622;-71
2021/12/04 08:31:33;;;;;;;16.23;11.68;;;;;;;0.49;100.00;98038.89;1820914;77;21118;-71
2021/12/04 08:34:01;;;;;;;;;;;;;;;0.49;100.00;98041.02;1820235;77;21004;-71
2021/12/04 08:36:29;;;;;;;20.82;12.60;;;;;;;0.57;100.00;98039.48;1819543;77;21101;-71
2021/12/04 08:38:56;;;;;;;16.00;12.35;;;;;;;0.63;100.00;98045.23;1819230;77;21571;-72
2021/12/04 08:41:22;;;;;;;17.27;12.47;;;;;;;0.70;100.00;98047.59;1823786;77;20995;-71
2021/12/04 08:43:49;;;;;;;12.78;10.80;;;;;;;0.76;100.00;98048.23;1821195;77;21709;-69
2021/12/04 08:46:20;;;;;;;13.22;10.20;;;;;;;0.83;100.00;98051.42;1823517;77;21424;-69
2021/12/04 08:48:44;;;;;;;14.58;9.95;;;;;;;0.85;100.00;98059.92;1822930;77;22045;-69
2021/12/04 08:51:12;;;;;;;12.73;10.18;;;;;;;0.85;100.00;98059.92;1818221;77;21088;-69
2021/12/04 08:53:40;;;;;;;12.73;9.60;;;;;;;0.85;100.00;98059.92;1820280;77;20999;-69
2021/12/04 08:56:08;;;;;;;14.45;9.13;;;;;;;0.83;100.00;98064.27;1820877;77;21004;-69
2021/12/04 08:58:37;;;;;;;12.13;9.23;;;;;;;0.86;100.00;98059.02;1820768;77;21145;-69
2021/12/04 09:01:06;;;;;;;10.53;8.88;;;;;;;0.90;100.00;98068.31;1819778;77;21343;-70
2021/12/04 09:03:37;;;;;;;11.22;9.00;;;;;;;0.95;100.00;98061.27;1820090;77;21077;-69
2021/12/04 09:06:05;;;;;;;10.28;8.95;;;;;;;1.10;100.00;98060.73;1818315;77;21022;-69
2021/12/04 09:08:33;;;;;;;13.22;9.25;;;;;;;1.26;100.00;98062.33;1795432;77;21705;-69
2021/12/04 09:11:05;;;;;;;12.93;9.95;;;;;;;1.37;100.00;98065.77;1816877;77;22804;-70
2021/12/04 09:13:34;;;;;;;13.00;8.68;;;;;;;1.42;100.00;98056.16;1799987;77;21013;-70
2021/12/04 09:16:04;;;;;;;13.15;9.48;;;;;;;1.43;100.00;98070.70;1796041;79;20964;-70
2021/12/04 09:18:31;;;;;;;13.75;9.15;;;;;;;1.47;100.00;98064.55;1788779;79;21012;-70
2021/12/04 09:20:58;;;;;;;14.75;9.60;;;;;;;1.49;100.00;98060.19;1797428;79;21079;-70
2021/12/04 09:23:30;;;;;;;14.45;9.48;;;;;;;1.59;100.00;98064.98;1797077;78;21022;-69
2021/12/04 09:25:56;;;;;;;16.37;10.40;;;;;;;1.73;100.00;98061.44;1792177;78;21256;-70
2021/12/04 09:29:36;;;;;;;16.12;10.18;;;;;;;1.84;100.00;98063.15;1791004;79;21554;-70
2021/12/04 09:36:45;;;;;;;14.85;10.55;;;;;;;2.09;100.00;98060.92;1797305;78;21133;-70
2021/12/04 10:01:23;;;;;;;13.98;10.80;;;;;;;1.96;100.00;98060.13;1793991;79;21168;-70
2021/12/04 10:19:36;;;;;;;14.43;10.63;;;;;;;1.83;100.00;98071.78;1824577;77;21087;-70
2021/12/04 10:22:18;;;;;;;14.60;10.10;;;;;;;1.83;100.00;98064.06;1822621;77;21681;-71
2021/12/04 10:33:17;;;;;;;16.97;12.20;;;;;;;1.80;100.00;98065.47;1819349;77;21801;-69
2021/12/04 10:35:47;;;;;;;14.00;10.75;;;;;;;1.76;100.00;98056.17;1822237;77;21063;-70
2021/12/04 10:38:21;;;;;;;18.00;11.03;;;;;;;1.79;100.00;98059.91;1821685;77;21010;-70
2021/12/04 10:40:50;;;;;;;21.55;11.78;;;;;;;1.81;100.00;98065.84;1821763;77;21079;-69
2021/12/04 10:43:23;;;;;;;14.85;10.82;;;;;;;1.81;100.00;98060.70;1821461;77;21047;-71
2021/12/04 10:46:35;;;;;;;14.73;10.53;;;;;;;1.90;100.00;98059.05;1860413;75;22826;-69
2021/12/04 10:49:09;;;;;;;15.68;11.97;;;;;;;1.89;100.00;98066.39;1836027;77;21024;-69
2021/12/04 10:51:48;;;;;;;12.47;9.88;;;;;;;1.85;100.00;98067.42;1803994;78;21249;-71
2021/12/04 10:54:26;;;;;;;13.88;10.90;;;;;;;1.79;100.00;98072.78;1775949;78;21068;-71
2021/12/04 10:59:54;;;;;;;13.38;10.03;;;;;;;1.84;100.00;98069.59;1701565;81;21430;-71
2021/12/04 11:02:21;;;;;;;15.40;11.70;;;;;;;1.89;100.00;98070.25;1732037;81;20942;-70
2021/12/04 11:05:03;;;;;;;15.15;9.45;;;;;;;1.94;100.00;98069.63;1723681;81;21208;-70
2021/12/04 11:43:18;;;;;;;15.38;10.78;;;;;;;1.85;100.00;98063.56;1780822;79;21008;-70
2021/12/04 11:48:39;;;;;;;15.85;11.20;;;;;;;1.81;100.00;98062.44;1801414;78;20991;-68
2021/12/04 11:51:14;;;;;;;13.22;10.75;;;;;;;1.82;100.00;98066.25;1776610;80;21563;-68
2021/12/04 11:53:41;;;;;;;17.27;11.40;;;;;;;1.83;100.00;98064.06;1776037;80;20989;-70
2021/12/04 11:56:15;;;;;;;17.48;11.35;;;;;;;1.83;100.00;98064.06;1801368;78;20887;-69
2021/12/04 11:58:44;;;;;;;16.95;10.93;;;;;;;1.77;100.00;98066.88;1774434;80;21171;-70
2021/12/04 12:01:34;;;;;;;15.70;12.07;;;;;;;1.84;100.00;98075.19;1803752;78;20989;-70
2021/12/04 12:04:05;;;;;;;12.25;10.25;;;;;;;1.82;100.00;98079.13;1799221;78;20997;-70
2021/12/04 12:06:42;;;;;;;12.73;10.00;;;;;;;1.83;100.00;98076.09;1783652;79;20946;-71
2021/12/04 12:09:19;;;;;;;13.80;10.88;;;;;;;1.75;100.00;98081.53;1782520;79;20997;-70
2021/12/04 12:11:55;;;;;;;15.05;10.08;;;;;;;1.67;100.00;98087.41;1775578;79;21895;-71
2021/12/04 12:14:40;;;;;;;14.75;10.45;;;;;;;1.69;100.00;98092.05;1776288;79;21013;-71
2021/12/04 12:17:08;;;;;;;13.48;10.35;;;;;;;1.67;100.00;98084.38;1785079;79;21545;-70
2021/12/04 12:19:41;;;;;;;13.43;9.83;;;;;;;1.65;100.00;98078.90;1780644;79;21097;-71
2021/12/04 12:22:19;;;;;;;14.75;10.68;;;;;;;1.58;100.00;98082.16;1800370;78;20924;-70
2021/12/04 12:27:40;;;;;;;20.77;12.00;;;;;;;1.54;100.00;98080.58;1795497;78;21568;-70
2021/12/04 12:33:28;;;;;;;18.65;12.05;;;;;;;1.53;100.00;98074.59;1782685;79;21607;-71
2021/12/04 12:36:09;;;;;;;19.25;13.18;;;;;;;1.55;100.00;98074.55;1802427;78;21529;-71
2021/12/04 12:38:40;;;;;;;21.25;11.90;;;;;;;1.58;100.00;98076.18;1805198;78;22188;-70
2021/12/04 12:41:35;;;;;;;14.98;11.30;;;;;;;1.60;100.00;98069.22;1800531;78;20926;-70
2021/12/04 12:44:19;;;;;;;16.07;10.05;;;;;;;1.69;100.00;98074.05;1803009;78;20996;-70
2021/12/04 12:47:05;;;;;;;17.52;10.65;;;;;;;1.77;100.00;98074.59;1788802;78;20940;-69
2021/12/04 12:49:42;;;;;;;17.42;10.72;;;;;;;1.79;100.00;98072.78;1790231;79;21116;-68
2021/12/04 12:52:17;;;;;;;18.02;11.15;;;;;;;1.75;100.00;98073.80;1803057;78;21489;-69
2021/12/04 12:54:58;;;;;;;15.48;10.30;;;;;;;1.71;100.00;98077.38;1805430;78;21005;-70
2021/12/04 12:57:36;;;;;;;12.58;8.93;;;;;;;1.69;100.00;98083.05;1815612;78;21052;-69
2021/12/04 13:12:15;;;;;;;12.23;9.60;;;;;;;1.62;100.00;98067.44;1794720;79;21006;-69
2021/12/04 13:14:46;;;;;;;13.65;10.40;;;;;;;1.67;100.00;98070.68;1791861;79;21017;-70
2021/12/04 13:17:18;;;;;;;11.68;9.28;;;;;;;1.78;100.00;98074.97;1788717;79;21024;-68
2021/12/04 13:19:51;;;;;;;12.82;8.08;;;;;;;1.78;100.00;98071.11;1789147;79;21049;-70
2021/12/04 13:22:23;;;;;;;10.32;9.05;;;;;;;1.72;100.00;98079.07;1793043;79;21136;-69
2021/12/04 13:24:54;;;;;;;13.55;10.55;;;;;;;1.65;100.00;98077.61;1784129;79;21103;-69
2021/12/04 13:29:27;;;;;;;13.00;9.95;;;;;;;1.60;100.00;98079.52;1836005;76;22768;-70
2021/12/04 13:31:58;;;;;;;8.90;7.08;;;;;;;1.44;100.00;98087.81;1795099;78;21084;-69
2021/12/04 13:34:28;;;;;;;9.00;7.08;;;;;;;1.46;100.00;98091.17;1812925;78;21077;-70
2021/12/04 13:37:00;;;;;;;7.05;6.30;;;;;;;1.41;100.00;98087.92;1808576;78;21008;-70
2021/12/04 13:39:28;;;;;;;8.10;7.15;;;;;;;1.29;100.00;98090.95;1813704;78;21622;-70
2021/12/04 13:41:56;;;;;;;9.88;6.75;;;;;;;1.19;100.00;98099.88;1818834;78;20992;-70
2021/12/04 13:44:26;;;;;;;8.50;6.55;;;;;;;1.06;100.00;98096.88;1813635;78;21097;-71
2021/12/04 13:47:00;;;;;;;7.12;6.25;;;;;;;0.99;100.00;98094.98;1810584;78;21231;-70
2021/12/04 13:49:32;;;;;;;9.50;7.08;;;;;;;0.96;100.00;98096.37;1818107;78;21657;-70
2021/12/04 13:52:07;;;;;;;9.48;7.42;;;;;;;0.92;100.00;98093.95;1813079;78;20980;-70
2021/12/04 13:54:39;;;;;;;9.00;7.40;;;;;;;0.84;100.00;98095.48;1815715;78;20908;-71
2021/12/04 13:57:12;;;;;;;9.43;7.37;;;;;;;0.79;100.00;98101.25;1811809;78;21075;-71
2021/12/04 13:59:39;;;;;;;9.50;7.17;;;;;;;0.75;100.00;98091.95;1815537;78;21024;-71
2021/12/04 14:02:07;;;;;;;11.30;10.05;;;;;;;0.71;100.00;98100.21;1821235;78;21512;-70
2021/12/04 14:04:36;;;;;;;13.22;9.30;;;;;;;0.66;100.00;98095.67;1761539;81;20966;-70
2021/12/04 14:07:04;;;;;;;13.35;9.03;;;;;;;0.64;100.00;98098.30;1754766;80;20998;-72
2021/12/04 14:09:38;;;;;;;11.30;8.85;;;;;;;0.63;100.00;98096.61;1767036;80;21039;-69
2021/12/04 14:12:07;;;;;;;11.12;9.38;;;;;;;0.62;100.00;98101.36;1760921;81;21075;-70
2021/12/04 14:14:35;;;;;;;12.98;9.70;;;;;;;0.57;100.00;98101.95;1765120;80;21044;-70
2021/12/04 14:17:12;;;;;;;18.98;11.57;;;;;;;0.56;100.00;98100.28;1762389;79;21542;-70
2021/12/04 14:19:40;;;;;;;23.45;15.88;;;;;;;0.54;100.00;98103.79;1779834;79;22899;-70
2021/12/04 14:22:14;;;;;;;20.52;15.38;;;;;;;0.57;100.00;98099.38;1769953;79;20920;-67
2021/12/04 14:24:48;;;;;;;23.87;15.50;;;;;;;0.57;100.00;98099.38;1762455;79;21085;-69
2021/12/04 14:27:23;;;;;;;16.05;11.45;;;;;;;0.56;100.00;98101.57;1753315;81;21079;-68